SondeTracker

Meteorological Radiosondes Database

Operations

Sounding was ended - last measurement: 2022-12-07 01:30:05z

MAP
About Radiosonde

Number: U2010168

Launch Site: Cahersiveen (IE)

Type: RS41-SG

AUX: NO

Frequency: 405.30 MHz

Max Speed: 154 km/h at 33641 m

Average Speed: 43.11 km/h

Max Altitude: 33927 m

Average Ascent Speed: 5.40 m/s

Average Descent Speed: 22.38 m/s

Status: LOST

Status Changes
Launch Site Type AUX Frequency Status Finder Landing Point Description Changes made by
MHz LOST 0, 0 AUTO STATUS: Probably lost in the water [BOT]AUTO-STATUS - 2022-12-07 02:31:57z
APRS Statistics

Received Frames: 169

First Frame [UTC]: 2022-12-06 23:24:38z

Last Frame [UTC]: 2022-12-07 01:30:05z

Receivers: EI6HKB-11

Flight Time: 02:05:27 h

Distance From First Measurement: 52.42 km

Nearest City: Bantry (IE) [63.86 km]

Nearest Hunter: Ei4jn [45.31 km]

Ground Altitude: -123 m

Distance from QTH: 0.00 km

APRS Data
Receiver Number Date/Time [UTC] φ λ Course [°] Speed [km/h] Altitude [m] Description
EI6HKB-11U20101682022-12-07 01:30:0551.4678-10.311124330151Clb=-11.2m/s 405.30MHz Type=RS41-SG Aux[] BK=Timed(080543h) RS41Tracker 1.17
EI6HKB-11U20101682022-12-07 01:29:4451.4685-10.30924828373Clb=-11.6m/s 405.30MHz Type=RS41-SG Aux[] BK=Timed(080634h) RS41Tracker 1.17
EI6HKB-11U20101682022-12-07 01:29:2551.4688-10.30726619607Clb=-13.2m/s 405.30MHz Type=RS41-SG Aux[] BK=Timed(080634h) RS41Tracker 1.17
EI6HKB-11U20101682022-12-07 01:29:0451.4687-10.305628019862Clb=-13.8m/s 405.30MHz Type=RS41-SG Aux[] BK=Timed(080725h) RS41Tracker 1.17
EI6HKB-11U20101682022-12-07 01:28:4451.4685-10.3042279191120Clb=-13.8m/s 405.30MHz Type=RS41-SG Aux[] BK=Timed(080725h) RS41Tracker 1.17
EI6HKB-11U20101682022-12-07 01:28:2551.4683-10.3027279201386Clb=-13.6m/s 405.30MHz Type=RS41-SG Aux[] BK=Timed(080725h) RS41Tracker 1.17
EI6HKB-11U20101682022-12-07 01:28:0551.4682-10.3011270221616Clb=-10.6m/s 405.30MHz Type=RS41-SG Aux[] BK=Timed(080816h) RS41Tracker 1.17
EI6HKB-11U20101682022-12-07 01:27:4151.4688-10.2991245241903Clb=-13.1m/s 405.30MHz Type=RS41-SG Aux[] BK=Timed(080816h) RS41Tracker 1.17
EI6HKB-11U20101682022-12-07 01:27:2151.469-10.2973252262162Clb=-12.4m/s 405.30MHz Type=RS41-SG Aux[] BK=Timed(080907h) RS41Tracker 1.17
EI6HKB-11U20101682022-12-07 01:27:0251.4694-10.2956263202428Clb=-13.1m/s 405.30MHz Type=RS41-SG Aux[] BK=Timed(080907h) RS41Tracker 1.17
EI6HKB-11U20101682022-12-07 01:26:4151.4698-10.2939252202672Clb=-12.3m/s 405.30MHz Type=RS41-SG Aux[] BK=Timed(080907h) RS41Tracker 1.17
EI6HKB-11U20101682022-12-07 01:26:2151.4703-10.2924238192914Clb=-11.8m/s 405.30MHz Type=RS41-SG Aux[] BK=Timed(080958h) RS41Tracker 1.17
EI6HKB-11U20101682022-12-07 01:26:0251.4707-10.2906262333167Clb=-13.2m/s 405.30MHz Type=RS41-SG Aux[] BK=Timed(080958h) RS41Tracker 1.17
EI6HKB-11U20101682022-12-07 01:24:5851.4718-10.2821257413994Clb=-14.3m/s 405.30MHz Type=RS41-SG Aux[] BK=Timed(081140h) RS41Tracker 1.17
EI6HKB-11U20101682022-12-07 01:24:1051.4729-10.2731261654638Clb=-14.9m/s 405.30MHz Type=RS41-SG Aux[] BK=Timed(081140h) RS41Tracker 1.17
EI6HKB-11U20101682022-12-07 01:23:3051.4743-10.2631258675195Clb=-14.9m/s 405.30MHz Type=RS41-SG Aux[] BK=Timed(081231h) RS41Tracker 1.17
EI6HKB-11U20101682022-12-07 01:22:2851.4756-10.246261706093Clb=-15.3m/s 405.30MHz Type=RS41-SG Aux[] BK=Timed(081322h) RS41Tracker 1.17
EI6HKB-11U20101682022-12-07 01:21:4851.4769-10.2349254746665Clb=-16.2m/s 405.30MHz Type=RS41-SG Aux[] BK=Timed(081413h) RS41Tracker 1.17
EI6HKB-11U20101682022-12-07 01:21:0851.4794-10.2235246727269Clb=-16.6m/s 405.30MHz Type=RS41-SG Aux[] BK=Timed(081504h) RS41Tracker 1.17
EI6HKB-11U20101682022-12-07 01:20:4851.481-10.2183245707599Clb=-17.3m/s 405.30MHz Type=RS41-SG Aux[] BK=Timed(081504h) RS41Tracker 1.17
EI6HKB-11U20101682022-12-07 01:20:0251.4834-10.2073250678368Clb=-18.2m/s 405.30MHz Type=RS41-SG Aux[] BK=Timed(081555h) RS41Tracker 1.17
EI6HKB-11U20101682022-12-07 01:19:4251.4843-10.2022253678710Clb=-16.1m/s 405.30MHz Type=RS41-SG Aux[] BK=Timed(081646h) RS41Tracker 1.17
EI6HKB-11U20101682022-12-07 01:19:2251.485-10.1972263619039Clb=-18.2m/s 405.30MHz Type=RS41-SG Aux[] BK=Timed(081646h) RS41Tracker 1.17
EI6HKB-11U20101682022-12-07 01:18:4251.4857-10.1897250549711Clb=-18.1m/s 405.30MHz Type=RS41-SG Aux[] BK=Timed(081737h) RS41Tracker 1.17
EI6HKB-11U20101682022-12-07 01:18:2251.4868-10.18562475410060Clb=-19.7m/s 405.30MHz Type=RS41-SG Aux[] BK=Timed(081737h) RS41Tracker 1.17
EI6HKB-11U20101682022-12-07 01:18:0251.4872-10.18252632810424Clb=-16.9m/s 405.30MHz Type=RS41-SG Aux[] BK=Timed(081828h) RS41Tracker 1.17
EI6HKB-11U20101682022-12-07 01:17:3851.4881-10.18112012610809Clb=-18.1m/s 405.30MHz Type=RS41-SG Aux[] BK=Timed(081828h) RS41Tracker 1.17
EI6HKB-11U20101682022-12-07 01:16:3851.49-10.17831771311902Clb=-20.1m/s 405.30MHz Type=RS41-SG Aux[] BK=Timed(081919h) RS41Tracker 1.17
EI6HKB-11U20101682022-12-07 01:16:1851.4908-10.17821971712314Clb=-21.4m/s 405.30MHz Type=RS41-SG Aux[] BK=Timed(082010h) RS41Tracker 1.17
EI6HKB-11U20101682022-12-07 01:15:1851.4935-10.1791602213652Clb=-24.0m/s 405.30MHz Type=RS41-SG Aux[] BK=Timed(082101h) RS41Tracker 1.17
EI6HKB-11U20101682022-12-07 01:14:5851.4943-10.17921621714127Clb=-23.7m/s 405.30MHz Type=RS41-SG Aux[] BK=Timed(082101h) RS41Tracker 1.17
EI6HKB-11U20101682022-12-07 01:14:3851.4951-10.1792149614597Clb=-23.8m/s 405.30MHz Type=RS41-SG Aux[] BK=Timed(082152h) RS41Tracker 1.17
EI6HKB-11U20101682022-12-07 01:14:1851.4954-10.1794142915095Clb=-25.4m/s 405.30MHz Type=RS41-SG Aux[] BK=Timed(082152h) RS41Tracker 1.17
EI6HKB-11U20101682022-12-07 01:13:5851.4959-10.18031212015592Clb=-28.2m/s 405.30MHz Type=RS41-SG Aux[] BK=Timed(082152h) RS41Tracker 1.17
EI6HKB-11U20101682022-12-07 01:13:3851.4971-10.18121623116089Clb=-24.6m/s 405.30MHz Type=RS41-SG Aux[] BK=Timed(082243h) RS41Tracker 1.17
EI6HKB-11U20101682022-12-07 01:13:1851.4984-10.18171672816608Clb=-25.5m/s 405.30MHz Type=RS41-SG Aux[] BK=Timed(082243h) RS41Tracker 1.17
EI6HKB-11U20101682022-12-07 01:12:3851.5001-10.18291672217641Clb=-28.7m/s 405.30MHz Type=RS41-SG Aux[] BK=Timed(082334h) RS41Tracker 1.17
EI6HKB-11U20101682022-12-07 01:12:1851.5007-10.18311201718178Clb=-24.4m/s 405.30MHz Type=RS41-SG Aux[] BK=Timed(082334h) RS41Tracker 1.17
EI6HKB-11U20101682022-12-07 01:11:5851.5015-10.18511463018677Clb=-25.2m/s 405.30MHz Type=RS41-SG Aux[] BK=Timed(082425h) RS41Tracker 1.17
EI6HKB-11U20101682022-12-07 01:11:3851.5025-10.1855173919167Clb=-26.9m/s 405.30MHz Type=RS41-SG Aux[] BK=Timed(082425h) RS41Tracker 1.17
EI6HKB-11U20101682022-12-07 01:10:5851.5036-10.18651553120172Clb=-25.7m/s 405.30MHz Type=RS41-SG Aux[] BK=Timed(082516h) RS41Tracker 1.17
EI6HKB-11U20101682022-12-07 01:10:3851.5048-10.18741493120710Clb=-30.3m/s 405.30MHz Type=RS41-SG Aux[] BK=Timed(082516h) RS41Tracker 1.17
EI6HKB-11U20101682022-12-07 01:10:1851.5061-10.18881673721307Clb=-29.4m/s 405.30MHz Type=RS41-SG Aux[] BK=Timed(082607h) RS41Tracker 1.17
EI6HKB-11U20101682022-12-07 01:09:5851.5081-10.1891903721919Clb=-32.1m/s 405.30MHz Type=RS41-SG Aux[] BK=Timed(082607h) RS41Tracker 1.17
EI6HKB-11U20101682022-12-07 01:09:3851.5099-10.18852054122550Clb=-30.6m/s 405.30MHz Type=RS41-SG Aux[] BK=Timed(082607h) RS41Tracker 1.17
EI6HKB-11U20101682022-12-07 01:08:3851.5122-10.19131374424532Clb=-41.2m/s 405.30MHz Type=RS41-SG Aux[] BK=Timed(082749h) RS41Tracker 1.17
EI6HKB-11U20101682022-12-07 01:08:1851.5144-10.19391526725379Clb=-43.3m/s 405.30MHz Type=RS41-SG Aux[] BK=Timed(082749h) RS41Tracker 1.17
EI6HKB-11U20101682022-12-07 01:07:5851.5174-10.19571646326251Clb=-41.8m/s 405.30MHz Type=RS41-SG Aux[] BK=Timed(082749h) RS41Tracker 1.17
EI6HKB-11U20101682022-12-07 01:07:3851.52-10.19711424827117Clb=-41.3m/s 405.30MHz Type=RS41-SG Aux[] BK=Timed(082840h) RS41Tracker 1.17
EI6HKB-11U20101682022-12-07 01:06:3851.5281-10.20812310029890Clb=-51.4m/s 405.30MHz Type=RS41-SG Aux[] BK=Timed(082931h) RS41Tracker 1.17
EI6HKB-11U20101682022-12-07 01:06:1851.5307-10.216112613130979Clb=-54.6m/s 405.30MHz Type=RS41-SG Aux[] BK=Timed(082931h) RS41Tracker 1.17
EI6HKB-11U20101682022-12-07 01:04:5651.5443-10.255711814433927Clb=5.9m/s 405.30MHz Type=RS41-SG Aux[] BK=Timed(083000h) RS41Tracker 1.17
EI6HKB-11U20101682022-12-07 01:04:3451.5471-10.266510813333778Clb=6.7m/s 405.30MHz Type=RS41-SG Aux[] BK=Timed(083000h) RS41Tracker 1.17
EI6HKB-11U20101682022-12-07 01:04:1451.5499-10.276711415433641Clb=6.8m/s 405.30MHz Type=RS41-SG Aux[] BK=Timed(083000h) RS41Tracker 1.17
EI6HKB-11U20101682022-12-07 01:03:3451.5564-10.299111313133366Clb=6.9m/s 405.30MHz Type=RS41-SG Aux[] BK=Timed(083000h) RS41Tracker 1.17
EI6HKB-11U20101682022-12-07 01:00:3451.5826-10.376412311332200Clb=7.9m/s 405.30MHz Type=RS41-SG Aux[] BK=Timed(083000h) RS41Tracker 1.17
EI6HKB-11U20101682022-12-07 00:57:3451.6193-10.446911013330942Clb=7.7m/s 405.30MHz Type=RS41-SG Aux[] BK=Timed(083000h) RS41Tracker 1.17
EI6HKB-11U20101682022-12-07 00:57:1451.6219-10.455911310730816Clb=5.9m/s 405.30MHz Type=RS41-SG Aux[] BK=Timed(083000h) RS41Tracker 1.17
EI6HKB-11U20101682022-12-07 00:56:5451.6237-10.463511710630689Clb=6.1m/s 405.30MHz Type=RS41-SG Aux[] BK=Timed(083000h) RS41Tracker 1.17
EI6HKB-11U20101682022-12-07 00:56:3451.6254-10.47131069430561Clb=7.6m/s 405.30MHz Type=RS41-SG Aux[] BK=Timed(083000h) RS41Tracker 1.17
EI6HKB-11U20101682022-12-07 00:54:5451.6369-10.50491428129913Clb=6.8m/s 405.30MHz Type=RS41-SG Aux[] BK=Timed(083000h) RS41Tracker 1.17
EI6HKB-11U20101682022-12-07 00:54:3451.6393-10.51021228029778Clb=5.1m/s 405.30MHz Type=RS41-SG Aux[] BK=Timed(083000h) RS41Tracker 1.17
EI6HKB-11U20101682022-12-07 00:52:1451.6555-10.53831347828879Clb=4.8m/s 405.30MHz Type=RS41-SG Aux[] BK=Timed(083000h) RS41Tracker 1.17
EI6HKB-11U20101682022-12-07 00:49:1251.6807-10.56731436727705Clb=7.1m/s 405.30MHz Type=RS41-SG Aux[] BK=Timed(083000h) RS41Tracker 1.17
EI6HKB-11U20101682022-12-07 00:48:5251.6834-10.57071337027583Clb=4.9m/s 405.30MHz Type=RS41-SG Aux[] BK=Timed(083000h) RS41Tracker 1.17
EI6HKB-11U20101682022-12-07 00:48:1051.6876-10.57741225027336Clb=7.1m/s 405.30MHz Type=RS41-SG Aux[] BK=Timed(083000h) RS41Tracker 1.17
EI6HKB-11U20101682022-12-07 00:47:5051.689-10.581464427217Clb=4.4m/s 405.30MHz Type=RS41-SG Aux[] BK=Timed(083000h) RS41Tracker 1.17
EI6HKB-11U20101682022-12-07 00:47:3051.691-10.58181555927096Clb=7.7m/s 405.30MHz Type=RS41-SG Aux[] BK=Timed(083000h) RS41Tracker 1.17
EI6HKB-11U20101682022-12-07 00:47:0851.6938-10.58331755626965Clb=5.8m/s 405.30MHz Type=RS41-SG Aux[] BK=Timed(083000h) RS41Tracker 1.17
EI6HKB-11U20101682022-12-07 00:46:4851.6964-10.58381714626849Clb=5.4m/s 405.30MHz Type=RS41-SG Aux[] BK=Timed(083000h) RS41Tracker 1.17
EI6HKB-11U20101682022-12-07 00:45:4851.7051-10.58751645626490Clb=6.3m/s 405.30MHz Type=RS41-SG Aux[] BK=Timed(083000h) RS41Tracker 1.17
EI6HKB-11U20101682022-12-07 00:45:2851.7084-10.5891667026356Clb=5.4m/s 405.30MHz Type=RS41-SG Aux[] BK=Timed(083000h) RS41Tracker 1.17
EI6HKB-11U20101682022-12-07 00:45:0651.7119-10.59111627026219Clb=5.2m/s 405.30MHz Type=RS41-SG Aux[] BK=Timed(083000h) RS41Tracker 1.17
EI6HKB-11U20101682022-12-07 00:44:0451.7197-10.59681615725818Clb=8.0m/s 405.30MHz Type=RS41-SG Aux[] BK=Timed(083000h) RS41Tracker 1.17
EI6HKB-11U20101682022-12-07 00:43:2451.7253-10.60141516325551Clb=7.4m/s 405.30MHz Type=RS41-SG Aux[] BK=Timed(083000h) RS41Tracker 1.17
EI6HKB-11U20101682022-12-07 00:43:0451.7277-10.6041475625427Clb=7.4m/s 405.30MHz Type=RS41-SG Aux[] BK=Timed(083000h) RS41Tracker 1.17
EI6HKB-11U20101682022-12-07 00:42:4451.7302-10.60681476725304Clb=7.1m/s 405.30MHz Type=RS41-SG Aux[] BK=Timed(083000h) RS41Tracker 1.17
EI6HKB-11U20101682022-12-07 00:40:2051.7448-10.62311443924465Clb=4.6m/s 405.30MHz Type=RS41-SG Aux[] BK=Timed(083000h) RS41Tracker 1.17
EI6HKB-11U20101682022-12-07 00:39:2051.7484-10.62921354424097Clb=4.7m/s 405.30MHz Type=RS41-SG Aux[] BK=Timed(083000h) RS41Tracker 1.17
EI6HKB-11U20101682022-12-07 00:38:4051.7497-10.63261431723859Clb=7.5m/s 405.30MHz Type=RS41-SG Aux[] BK=Timed(083000h) RS41Tracker 1.17
EI6HKB-11U20101682022-12-07 00:37:2051.7537-10.63541433123381Clb=4.7m/s 405.30MHz Type=RS41-SG Aux[] BK=Timed(083000h) RS41Tracker 1.17
EI6HKB-11U20101682022-12-07 00:37:0051.7549-10.63591782423266Clb=5.1m/s 405.30MHz Type=RS41-SG Aux[] BK=Timed(083000h) RS41Tracker 1.17
EI6HKB-11U20101682022-12-07 00:36:4051.7559-10.63541992623153Clb=5.0m/s 405.30MHz Type=RS41-SG Aux[] BK=Timed(083000h) RS41Tracker 1.17
EI6HKB-11U20101682022-12-07 00:35:4051.7598-10.63111984422818Clb=4.8m/s 405.30MHz Type=RS41-SG Aux[] BK=Timed(083000h) RS41Tracker 1.17
EI6HKB-11U20101682022-12-07 00:35:0051.7639-10.62991854822588Clb=5.2m/s 405.30MHz Type=RS41-SG Aux[] BK=Timed(083000h) RS41Tracker 1.17
EI6HKB-11U20101682022-12-07 00:34:1851.7682-10.6311874122351Clb=6.2m/s 405.30MHz Type=RS41-SG Aux[] BK=Timed(083000h) RS41Tracker 1.17
EI6HKB-11U20101682022-12-07 00:33:5851.77-10.63121713922230Clb=5.3m/s 405.30MHz Type=RS41-SG Aux[] BK=Timed(083000h) RS41Tracker 1.17
EI6HKB-11U20101682022-12-07 00:33:3851.7719-10.63131814122108Clb=6.7m/s 405.30MHz Type=RS41-SG Aux[] BK=Timed(083000h) RS41Tracker 1.17
EI6HKB-11U20101682022-12-07 00:33:1851.7738-10.63141873521991Clb=6.1m/s 405.30MHz Type=RS41-SG Aux[] BK=Timed(083000h) RS41Tracker 1.17
EI6HKB-11U20101682022-12-07 00:32:5851.7757-10.63141864821874Clb=4.8m/s 405.30MHz Type=RS41-SG Aux[] BK=Timed(083000h) RS41Tracker 1.17
EI6HKB-11U20101682022-12-07 00:32:3851.7775-10.63181593721758Clb=6.5m/s 405.30MHz Type=RS41-SG Aux[] BK=Timed(083000h) RS41Tracker 1.17
EI6HKB-11U20101682022-12-07 00:31:1651.784-10.63631523921296Clb=5.6m/s 405.30MHz Type=RS41-SG Aux[] BK=Timed(083000h) RS41Tracker 1.17
EI6HKB-11U20101682022-12-07 00:30:5651.7853-10.63821243021191Clb=5.4m/s 405.30MHz Type=RS41-SG Aux[] BK=Timed(083000h) RS41Tracker 1.17
EI6HKB-11U20101682022-12-07 00:29:2851.7899-10.64631383120722Clb=4.3m/s 405.30MHz Type=RS41-SG Aux[] BK=Timed(083000h) RS41Tracker 1.17
EI6HKB-11U20101682022-12-07 00:28:4851.7923-10.64911503120509Clb=6.2m/s 405.30MHz Type=RS41-SG Aux[] BK=Timed(083000h) RS41Tracker 1.17
EI6HKB-11U20101682022-12-07 00:28:0451.7952-10.65121552820273Clb=6.1m/s 405.30MHz Type=RS41-SG Aux[] BK=Timed(083000h) RS41Tracker 1.17
EI6HKB-11U20101682022-12-07 00:27:2451.7981-10.65371523520059Clb=5.9m/s 405.30MHz Type=RS41-SG Aux[] BK=Timed(083000h) RS41Tracker 1.17
EI6HKB-11U20101682022-12-07 00:26:0251.8009-10.65661931719633Clb=4.5m/s 405.30MHz Type=RS41-SG Aux[] BK=Timed(083000h) RS41Tracker 1.17
EI6HKB-11U20101682022-12-07 00:25:4251.8014-10.6562232419527Clb=5.0m/s 405.30MHz Type=RS41-SG Aux[] BK=Timed(083000h) RS41Tracker 1.17
EI6HKB-11U20101682022-12-07 00:25:2251.8019-10.6559220719419Clb=4.9m/s 405.30MHz Type=RS41-SG Aux[] BK=Timed(083000h) RS41Tracker 1.17
EI6HKB-11U20101682022-12-07 00:25:0251.8024-10.656170619311Clb=5.4m/s 405.30MHz Type=RS41-SG Aux[] BK=Timed(083000h) RS41Tracker 1.17
EI6HKB-11U20101682022-12-07 00:24:2251.8029-10.65541801119109Clb=5.2m/s 405.30MHz Type=RS41-SG Aux[] BK=Timed(083000h) RS41Tracker 1.17
EI6HKB-11U20101682022-12-07 00:22:3651.8099-10.66031213318563Clb=6.0m/s 405.30MHz Type=RS41-SG Aux[] BK=Timed(083000h) RS41Tracker 1.17
EI6HKB-11U20101682022-12-07 00:20:4851.8125-10.66761891718046Clb=5.2m/s 405.30MHz Type=RS41-SG Aux[] BK=Timed(083000h) RS41Tracker 1.17
EI6HKB-11U20101682022-12-07 00:20:2851.8134-10.66722042417951Clb=4.9m/s 405.30MHz Type=RS41-SG Aux[] BK=Timed(083000h) RS41Tracker 1.17
EI6HKB-11U20101682022-12-07 00:20:0851.8147-10.66681963017851Clb=4.6m/s 405.30MHz Type=RS41-SG Aux[] BK=Timed(083000h) RS41Tracker 1.17
EI6HKB-11U20101682022-12-07 00:19:4851.8161-10.66641873117755Clb=6.0m/s 405.30MHz Type=RS41-SG Aux[] BK=Timed(083000h) RS41Tracker 1.17
EI6HKB-11U20101682022-12-07 00:19:2651.8179-10.66611843717644Clb=6.1m/s 405.30MHz Type=RS41-SG Aux[] BK=Timed(083000h) RS41Tracker 1.17
EI6HKB-11U20101682022-12-07 00:14:2251.8313-10.67551602616159Clb=4.0m/s 405.30MHz Type=RS41-SG Aux[] BK=Timed(083000h) RS41Tracker 1.17
EI6HKB-11U20101682022-12-07 00:13:1651.8363-10.67851543015844Clb=3.5m/s 405.30MHz Type=RS41-SG Aux[] BK=Timed(083000h) RS41Tracker 1.17
EI6HKB-11U20101682022-12-07 00:12:0851.839-10.68211272015530Clb=3.8m/s 405.30MHz Type=RS41-SG Aux[] BK=Timed(083000h) RS41Tracker 1.17
EI6HKB-11U20101682022-12-07 00:11:4851.8398-10.68281761715437Clb=4.9m/s 405.30MHz Type=RS41-SG Aux[] BK=Timed(083000h) RS41Tracker 1.17
EI6HKB-11U20101682022-12-07 00:11:2851.8408-10.68311782415345Clb=4.8m/s 405.30MHz Type=RS41-SG Aux[] BK=Timed(083000h) RS41Tracker 1.17
EI6HKB-11U20101682022-12-07 00:11:0851.8418-10.68321871515248Clb=5.1m/s 405.30MHz Type=RS41-SG Aux[] BK=Timed(083000h) RS41Tracker 1.17
EI6HKB-11U20101682022-12-07 00:09:4051.8446-10.68241931314809Clb=5.6m/s 405.30MHz Type=RS41-SG Aux[] BK=Timed(083000h) RS41Tracker 1.17
EI6HKB-11U20101682022-12-07 00:08:2451.8447-10.682565214444Clb=5.2m/s 405.30MHz Type=RS41-SG Aux[] BK=Timed(083000h) RS41Tracker 1.17
EI6HKB-11U20101682022-12-07 00:07:5651.845-10.68281791314320Clb=5.1m/s 405.30MHz Type=RS41-SG Aux[] BK=Timed(083000h) RS41Tracker 1.17
EI6HKB-11U20101682022-12-07 00:06:0051.8504-10.68132182013790Clb=5.3m/s 405.30MHz Type=RS41-SG Aux[] BK=Timed(083000h) RS41Tracker 1.17
EI6HKB-11U20101682022-12-07 00:03:5251.8567-10.68161972413174Clb=4.0m/s 405.30MHz Type=RS41-SG Aux[] BK=Timed(083000h) RS41Tracker 1.17
EI6HKB-11U20101682022-12-07 00:03:3251.858-10.68131772413081Clb=5.9m/s 405.30MHz Type=RS41-SG Aux[] BK=Timed(083000h) RS41Tracker 1.17
EI6HKB-11U20101682022-12-07 00:03:1251.8589-10.68161761912977Clb=4.7m/s 405.30MHz Type=RS41-SG Aux[] BK=Timed(083000h) RS41Tracker 1.17
EI6HKB-11U20101682022-12-07 00:02:5251.8596-10.68171691912884Clb=3.4m/s 405.30MHz Type=RS41-SG Aux[] BK=Timed(083000h) RS41Tracker 1.17
EI6HKB-11U20101682022-12-07 00:02:2051.8606-10.6819178712740Clb=3.1m/s 405.30MHz Type=RS41-SG Aux[] BK=Timed(083000h) RS41Tracker 1.17
EI6HKB-11U20101682022-12-07 00:02:0051.8609-10.682215912650Clb=3.7m/s 405.30MHz Type=RS41-SG Aux[] BK=Timed(083000h) RS41Tracker 1.17
EI6HKB-11U20101682022-12-07 00:00:0051.8657-10.67971791712117Clb=4.1m/s 405.30MHz Type=RS41-SG Aux[] BK=Timed(083000h) RS41Tracker 1.17
EI6HKB-11U20101682022-12-06 23:58:1851.8674-10.678230911625Clb=4.5m/s 405.30MHz Type=RS41-SG Aux[] BK=Timed(083000h) RS41Tracker 1.17
EI6HKB-11U20101682022-12-06 23:57:5851.8682-10.67612293111524Clb=3.3m/s 405.30MHz Type=RS41-SG Aux[] BK=Timed(083000h) RS41Tracker 1.17
EI6HKB-11U20101682022-12-06 23:57:3851.8691-10.6742293111442Clb=3.8m/s 405.30MHz Type=RS41-SG Aux[] BK=Timed(083000h) RS41Tracker 1.17
EI6HKB-11U20101682022-12-06 23:57:1851.8699-10.67212452611339Clb=5.3m/s 405.30MHz Type=RS41-SG Aux[] BK=Timed(083000h) RS41Tracker 1.17
EI6HKB-11U20101682022-12-06 23:56:5851.8707-10.67032252811249Clb=3.1m/s 405.30MHz Type=RS41-SG Aux[] BK=Timed(083000h) RS41Tracker 1.17
EI6HKB-11U20101682022-12-06 23:56:0851.8736-10.66691932411019Clb=4.3m/s 405.30MHz Type=RS41-SG Aux[] BK=Timed(083000h) RS41Tracker 1.17
EI6HKB-11U20101682022-12-06 23:54:4851.8771-10.6632216910638Clb=4.0m/s 405.30MHz Type=RS41-SG Aux[] BK=Timed(083000h) RS41Tracker 1.17
EI6HKB-11U20101682022-12-06 23:54:0851.8778-10.65992864110395Clb=5.7m/s 405.30MHz Type=RS41-SG Aux[] BK=Timed(083000h) RS41Tracker 1.17
EI6HKB-11U20101682022-12-06 23:52:0851.8853-10.6322245579753Clb=4.3m/s 405.30MHz Type=RS41-SG Aux[] BK=Timed(083000h) RS41Tracker 1.17
EI6HKB-11U20101682022-12-06 23:51:4851.8865-10.6275249579649Clb=5.1m/s 405.30MHz Type=RS41-SG Aux[] BK=Timed(083000h) RS41Tracker 1.17
EI6HKB-11U20101682022-12-06 23:50:4651.8886-10.614255579342Clb=3.1m/s 405.30MHz Type=RS41-SG Aux[] BK=Timed(083000h) RS41Tracker 1.17
EI6HKB-11U20101682022-12-06 23:50:2651.8888-10.6094266549233Clb=6.4m/s 405.30MHz Type=RS41-SG Aux[] BK=Timed(083000h) RS41Tracker 1.17
EI6HKB-11U20101682022-12-06 23:46:1651.8963-10.5408256748030Clb=3.4m/s 405.30MHz Type=RS41-SG Aux[] BK=Timed(083000h) RS41Tracker 1.17
EI6HKB-11U20101682022-12-06 23:45:4051.8984-10.5308253747850Clb=4.2m/s 405.30MHz Type=RS41-SG Aux[] BK=Timed(083000h) RS41Tracker 1.17
EI6HKB-11U20101682022-12-06 23:45:1651.8999-10.524251877731Clb=4.5m/s 405.30MHz Type=RS41-SG Aux[] BK=Timed(083000h) RS41Tracker 1.17
EI6HKB-11U20101682022-12-06 23:44:4851.9022-10.5161247747603Clb=5.1m/s 405.30MHz Type=RS41-SG Aux[] BK=Timed(083000h) RS41Tracker 1.17
EI6HKB-11U20101682022-12-06 23:44:2851.9037-10.5106248857494Clb=5.2m/s 405.30MHz Type=RS41-SG Aux[] BK=Timed(083000h) RS41Tracker 1.17
EI6HKB-11U20101682022-12-06 23:44:0851.9051-10.5043242727381Clb=5.9m/s 405.30MHz Type=RS41-SG Aux[] BK=Timed(083000h) RS41Tracker 1.17
EI6HKB-11U20101682022-12-06 23:43:4851.9064-10.4986254697287Clb=4.5m/s 405.30MHz Type=RS41-SG Aux[] BK=Timed(083000h) RS41Tracker 1.17
EI6HKB-11U20101682022-12-06 23:43:2851.9079-10.4924244807185Clb=5.3m/s 405.30MHz Type=RS41-SG Aux[] BK=Timed(083000h) RS41Tracker 1.17
EI6HKB-11U20101682022-12-06 23:42:0051.9132-10.4652255746733Clb=7.2m/s 405.30MHz Type=RS41-SG Aux[] BK=Timed(083000h) RS41Tracker 1.17
EI6HKB-11U20101682022-12-06 23:41:4051.9139-10.4593265746629Clb=3.9m/s 405.30MHz Type=RS41-SG Aux[] BK=Timed(083000h) RS41Tracker 1.17
EI6HKB-11U20101682022-12-06 23:37:3051.9171-10.3835268635409Clb=3.3m/s 405.30MHz Type=RS41-SG Aux[] BK=Timed(083000h) RS41Tracker 1.17
EI6HKB-11U20101682022-12-06 23:35:4651.9203-10.3578239654896Clb=4.4m/s 405.30MHz Type=RS41-SG Aux[] BK=Timed(083000h) RS41Tracker 1.17
EI6HKB-11U20101682022-12-06 23:35:2651.9211-10.3534246574805Clb=6.2m/s 405.30MHz Type=RS41-SG Aux[] BK=Timed(083000h) RS41Tracker 1.17
EI6HKB-11U20101682022-12-06 23:34:0651.9255-10.3359247504373Clb=7.9m/s 405.30MHz Type=RS41-SG Aux[] BK=Timed(083000h) RS41Tracker 1.17
EI6HKB-11U20101682022-12-06 23:32:4651.9291-10.3193250543927Clb=5.0m/s 405.30MHz Type=RS41-SG Aux[] BK=Timed(083000h) RS41Tracker 1.17
EI6HKB-11U20101682022-12-06 23:32:0651.9304-10.3117263523704Clb=5.8m/s 405.30MHz Type=RS41-SG Aux[] BK=Timed(083000h) RS41Tracker 1.17
EI6HKB-11U20101682022-12-06 23:29:4451.9329-10.2892272282987Clb=3.5m/s 405.30MHz Type=RS41-SG Aux[] BK=Timed(083000h) RS41Tracker 1.17
EI6HKB-11U20101682022-12-06 23:29:2351.9333-10.2871245312886Clb=5.1m/s 405.30MHz Type=RS41-SG Aux[] BK=Timed(083000h) RS41Tracker 1.17
EI6HKB-11U20101682022-12-06 23:29:0351.9339-10.2856212152788Clb=4.5m/s 405.30MHz Type=RS41-SG Aux[] BK=Timed(083000h) RS41Tracker 1.17
EI6HKB-11U20101682022-12-06 23:28:4351.9344-10.284237282688Clb=4.4m/s 405.30MHz Type=RS41-SG Aux[] BK=Timed(083000h) RS41Tracker 1.17
EI6HKB-11U20101682022-12-06 23:28:2351.9351-10.282216332583Clb=5.8m/s 405.30MHz Type=RS41-SG Aux[] BK=Timed(083000h) RS41Tracker 1.17
EI6HKB-11U20101682022-12-06 23:27:5951.9359-10.2793241352466Clb=4.9m/s 405.30MHz Type=RS41-SG Aux[] BK=Timed(083000h) RS41Tracker 1.17
EI6HKB-11U20101682022-12-06 23:27:4051.9362-10.2774262202364Clb=4.8m/s 405.30MHz Type=RS41-SG Aux[] BK=Timed(083000h) RS41Tracker 1.17
EI6HKB-11U20101682022-12-06 23:27:1951.9363-10.2752246282263Clb=4.8m/s 405.30MHz Type=RS41-SG Aux[] BK=Timed(083000h) RS41Tracker 1.17
EI6HKB-11U20101682022-12-06 23:26:5851.9369-10.2734247332155Clb=7.1m/s 405.30MHz Type=RS41-SG Aux[] BK=Timed(083000h) RS41Tracker 1.17
EI6HKB-11U20101682022-12-06 23:26:3951.937-10.271726292056Clb=4.9m/s 405.30MHz Type=RS41-SG Aux[] BK=Timed(083000h) RS41Tracker 1.17
EI6HKB-11U20101682022-12-06 23:26:1851.9373-10.2702225301952Clb=6.0m/s 405.30MHz Type=RS41-SG Aux[] BK=Timed(083000h) RS41Tracker 1.17
EI6HKB-11U20101682022-12-06 23:25:5851.9376-10.2685239281856Clb=4.9m/s 405.30MHz Type=RS41-SG Aux[] BK=Timed(083000h) RS41Tracker 1.17
EI6HKB-11U20101682022-12-06 23:25:3851.9378-10.2669261131753Clb=7.7m/s 405.30MHz Type=RS41-SG Aux[] BK=Timed(083000h) RS41Tracker 1.17
EI6HKB-11U20101682022-12-06 23:25:1951.938-10.2659226151639Clb=4.5m/s 405.30MHz Type=RS41-SG Aux[] BK=Timed(083000h) RS41Tracker 1.17
EI6HKB-11U20101682022-12-06 23:24:5951.9383-10.264828191532Clb=6.2m/s 405.30MHz Type=RS41-SG Aux[] BK=Timed(083000h) RS41Tracker 1.17
EI6HKB-11U20101682022-12-06 23:24:3851.9383-10.263729571428Clb=5.1m/s 405.30MHz Type=RS41-SG Aux[] BK=Timed(083000h) RS41Tracker 1.17